Terminal Aerodrome Forecast
Issued by NWS

Current Version | Previous Version | Text Only | Print | Product List | Glossary Off
Versions: 1 2 3 4 5 6 7 8 9 10 11 12 13 14 15

000
FTUS41 KPBZ 261516 AAB
TAFHLG
TAF AMD
KHLG 261516Z 2615/2712 18006KT P6SM VCSH SCT040 BKN080
      TEMPO 2615/2618 -SHRA
     FM261800 20008KT P6SM BKN100
     FM270100 18005KT P6SM VCSH BKN050
     FM270500 20007KT 5SM BR BKN025=

USA.gov is the U.S. government's official web portal to all federal, state and local government web resources and services.